sensor_id;sensor_type;location;lat;lon;timestamp;P1;durP1;ratioP1;P2;durP2;ratioP2
27428;SDS011;14881;48.092;11.574;2022-11-02T00:00:11;6.50;;;4.40;;
27428;SDS011;14881;48.092;11.574;2022-11-02T00:02:42;8.07;;;4.15;;
27428;SDS011;14881;48.092;11.574;2022-11-02T00:05:11;12.52;;;4.20;;
27428;SDS011;14881;48.092;11.574;2022-11-02T00:07:40;9.13;;;4.35;;
27428;SDS011;14881;48.092;11.574;2022-11-02T00:10:08;8.93;;;3.47;;
27428;SDS011;14881;48.092;11.574;2022-11-02T00:12:36;10.55;;;4.43;;
27428;SDS011;14881;48.092;11.574;2022-11-02T00:15:04;10.10;;;4.22;;
27428;SDS011;14881;48.092;11.574;2022-11-02T00:17:33;6.78;;;3.78;;
27428;SDS011;14881;48.092;11.574;2022-11-02T00:20:02;6.95;;;4.57;;
27428;SDS011;14881;48.092;11.574;2022-11-02T00:22:34;7.32;;;4.65;;
27428;SDS011;14881;48.092;11.574;2022-11-02T00:25:03;8.38;;;4.03;;
27428;SDS011;14881;48.092;11.574;2022-11-02T00:27:33;8.43;;;5.00;;
27428;SDS011;14881;48.092;11.574;2022-11-02T00:30:02;11.10;;;4.85;;
27428;SDS011;14881;48.092;11.574;2022-11-02T00:32:30;10.13;;;4.47;;
27428;SDS011;14881;48.092;11.574;2022-11-02T00:34:58;10.85;;;4.35;;
27428;SDS011;14881;48.092;11.574;2022-11-02T00:37:28;9.05;;;4.18;;
27428;SDS011;14881;48.092;11.574;2022-11-02T00:39:57;9.85;;;4.00;;
27428;SDS011;14881;48.092;11.574;2022-11-02T00:42:28;7.45;;;3.80;;
27428;SDS011;14881;48.092;11.574;2022-11-02T00:44:55;9.63;;;3.47;;
27428;SDS011;14881;48.092;11.574;2022-11-02T00:47:23;9.57;;;3.65;;
27428;SDS011;14881;48.092;11.574;2022-11-02T00:49:51;8.68;;;4.10;;
27428;SDS011;14881;48.092;11.574;2022-11-02T00:52:18;8.55;;;3.97;;
27428;SDS011;14881;48.092;11.574;2022-11-02T00:54:46;7.05;;;3.67;;
27428;SDS011;14881;48.092;11.574;2022-11-02T00:57:15;10.23;;;3.72;;
27428;SDS011;14881;48.092;11.574;2022-11-02T00:59:42;7.82;;;5.07;;
27428;SDS011;14881;48.092;11.574;2022-11-02T01:02:13;10.60;;;4.40;;
27428;SDS011;14881;48.092;11.574;2022-11-02T01:04:43;7.13;;;4.10;;
27428;SDS011;14881;48.092;11.574;2022-11-02T01:07:11;9.15;;;4.75;;
27428;SDS011;14881;48.092;11.574;2022-11-02T01:09:38;11.43;;;4.10;;
27428;SDS011;14881;48.092;11.574;2022-11-02T01:12:06;7.90;;;3.45;;
27428;SDS011;14881;48.092;11.574;2022-11-02T01:14:35;6.80;;;4.15;;
27428;SDS011;14881;48.092;11.574;2022-11-02T01:17:03;8.85;;;4.38;;
27428;SDS011;14881;48.092;11.574;2022-11-02T01:19:31;6.32;;;3.38;;
27428;SDS011;14881;48.092;11.574;2022-11-02T01:21:59;9.88;;;3.75;;
27428;SDS011;14881;48.092;11.574;2022-11-02T01:24:26;7.10;;;3.95;;
27428;SDS011;14881;48.092;11.574;2022-11-02T01:26:54;7.25;;;3.67;;
27428;SDS011;14881;48.092;11.574;2022-11-02T01:29:22;6.55;;;3.70;;
27428;SDS011;14881;48.092;11.574;2022-11-02T01:31:51;7.72;;;4.57;;
27428;SDS011;14881;48.092;11.574;2022-11-02T01:34:19;5.72;;;3.78;;
27428;SDS011;14881;48.092;11.574;2022-11-02T01:36:47;8.27;;;4.70;;
27428;SDS011;14881;48.092;11.574;2022-11-02T01:39:15;7.93;;;4.53;;
27428;SDS011;14881;48.092;11.574;2022-11-02T01:41:43;6.40;;;4.13;;
27428;SDS011;14881;48.092;11.574;2022-11-02T01:44:27;7.95;;;4.18;;
27428;SDS011;14881;48.092;11.574;2022-11-02T01:47:00;9.35;;;4.47;;
27428;SDS011;14881;48.092;11.574;2022-11-02T01:49:30;9.32;;;4.00;;
27428;SDS011;14881;48.092;11.574;2022-11-02T01:52:01;8.98;;;4.10;;
27428;SDS011;14881;48.092;11.574;2022-11-02T01:54:34;7.70;;;4.00;;
27428;SDS011;14881;48.092;11.574;2022-11-02T01:57:08;8.25;;;4.20;;
27428;SDS011;14881;48.092;11.574;2022-11-02T01:59:39;6.97;;;4.30;;
27428;SDS011;14881;48.092;11.574;2022-11-02T02:02:16;7.70;;;3.60;;
27428;SDS011;14881;48.092;11.574;2022-11-02T02:04:47;6.70;;;4.13;;
27428;SDS011;14881;48.092;11.574;2022-11-02T02:07:17;6.22;;;4.00;;
27428;SDS011;14881;48.092;11.574;2022-11-02T02:09:46;7.78;;;3.72;;
27428;SDS011;14881;48.092;11.574;2022-11-02T02:12:16;8.02;;;4.20;;
27428;SDS011;14881;48.092;11.574;2022-11-02T02:14:48;7.90;;;4.10;;
27428;SDS011;14881;48.092;11.574;2022-11-02T02:17:29;8.73;;;4.55;;
27428;SDS011;14881;48.092;11.574;2022-11-02T02:20:06;8.80;;;4.10;;
27428;SDS011;14881;48.092;11.574;2022-11-02T02:22:44;6.38;;;3.78;;
27428;SDS011;14881;48.092;11.574;2022-11-02T02:25:25;6.68;;;3.75;;
27428;SDS011;14881;48.092;11.574;2022-11-02T02:28:12;6.60;;;4.37;;
27428;SDS011;14881;48.092;11.574;2022-11-02T02:30:46;5.70;;;4.25;;
27428;SDS011;14881;48.092;11.574;2022-11-02T02:33:19;9.02;;;4.13;;
27428;SDS011;14881;48.092;11.574;2022-11-02T02:35:56;7.15;;;4.00;;
27428;SDS011;14881;48.092;11.574;2022-11-02T02:38:31;7.00;;;3.80;;
27428;SDS011;14881;48.092;11.574;2022-11-02T02:41:03;9.32;;;4.10;;
27428;SDS011;14881;48.092;11.574;2022-11-02T02:43:39;9.10;;;4.30;;
27428;SDS011;14881;48.092;11.574;2022-11-02T02:46:11;6.13;;;4.38;;
27428;SDS011;14881;48.092;11.574;2022-11-02T02:48:45;6.70;;;4.43;;
27428;SDS011;14881;48.092;11.574;2022-11-02T02:51:18;7.05;;;4.57;;
27428;SDS011;14881;48.092;11.574;2022-11-02T02:53:49;8.23;;;4.55;;
27428;SDS011;14881;48.092;11.574;2022-11-02T02:56:24;5.72;;;4.25;;
27428;SDS011;14881;48.092;11.574;2022-11-02T02:58:57;7.32;;;4.70;;
27428;SDS011;14881;48.092;11.574;2022-11-02T03:01:27;7.00;;;4.43;;
27428;SDS011;14881;48.092;11.574;2022-11-02T03:03:57;7.32;;;4.78;;
27428;SDS011;14881;48.092;11.574;2022-11-02T03:06:26;6.75;;;4.70;;
27428;SDS011;14881;48.092;11.574;2022-11-02T03:09:01;7.03;;;5.15;;
27428;SDS011;14881;48.092;11.574;2022-11-02T03:11:32;9.95;;;4.75;;
27428;SDS011;14881;48.092;11.574;2022-11-02T03:14:09;10.25;;;4.88;;
27428;SDS011;14881;48.092;11.574;2022-11-02T03:16:56;11.65;;;5.03;;
27428;SDS011;14881;48.092;11.574;2022-11-02T03:19:34;11.75;;;4.75;;
27428;SDS011;14881;48.092;11.574;2022-11-02T03:22:10;6.13;;;4.72;;
27428;SDS011;14881;48.092;11.574;2022-11-02T03:24:46;7.50;;;4.57;;
27428;SDS011;14881;48.092;11.574;2022-11-02T03:27:22;6.72;;;4.50;;
27428;SDS011;14881;48.092;11.574;2022-11-02T03:30:03;10.63;;;5.47;;
27428;SDS011;14881;48.092;11.574;2022-11-02T03:32:35;8.40;;;4.95;;
27428;SDS011;14881;48.092;11.574;2022-11-02T03:35:07;10.20;;;5.00;;
27428;SDS011;14881;48.092;11.574;2022-11-02T03:40:15;10.20;;;5.32;;
27428;SDS011;14881;48.092;11.574;2022-11-02T03:42:46;8.77;;;5.43;;
27428;SDS011;14881;48.092;11.574;2022-11-02T03:45:18;9.57;;;5.10;;
27428;SDS011;14881;48.092;11.574;2022-11-02T03:47:48;7.15;;;5.30;;
27428;SDS011;14881;48.092;11.574;2022-11-02T03:50:21;10.50;;;5.05;;
27428;SDS011;14881;48.092;11.574;2022-11-02T03:52:55;8.35;;;5.43;;
27428;SDS011;14881;48.092;11.574;2022-11-02T03:55:25;11.00;;;4.70;;
27428;SDS011;14881;48.092;11.574;2022-11-02T03:57:57;11.48;;;5.20;;
27428;SDS011;14881;48.092;11.574;2022-11-02T04:00:28;7.03;;;5.13;;
27428;SDS011;14881;48.092;11.574;2022-11-02T04:02:59;10.02;;;4.63;;
27428;SDS011;14881;48.092;11.574;2022-11-02T04:05:29;8.45;;;4.78;;
27428;SDS011;14881;48.092;11.574;2022-11-02T04:07:58;8.52;;;5.28;;
27428;SDS011;14881;48.092;11.574;2022-11-02T04:10:44;6.70;;;4.72;;
27428;SDS011;14881;48.092;11.574;2022-11-02T04:13:32;7.38;;;4.30;;
27428;SDS011;14881;48.092;11.574;2022-11-02T04:16:19;6.80;;;4.25;;
27428;SDS011;14881;48.092;11.574;2022-11-02T04:18:53;11.85;;;5.40;;
27428;SDS011;14881;48.092;11.574;2022-11-02T04:21:38;10.18;;;5.43;;
27428;SDS011;14881;48.092;11.574;2022-11-02T04:24:07;8.65;;;5.13;;
27428;SDS011;14881;48.092;11.574;2022-11-02T04:26:52;10.20;;;5.35;;
27428;SDS011;14881;48.092;11.574;2022-11-02T04:29:19;7.05;;;4.95;;
27428;SDS011;14881;48.092;11.574;2022-11-02T04:31:48;8.90;;;4.65;;
27428;SDS011;14881;48.092;11.574;2022-11-02T04:34:16;12.23;;;4.82;;
27428;SDS011;14881;48.092;11.574;2022-11-02T04:36:43;8.10;;;4.65;;
27428;SDS011;14881;48.092;11.574;2022-11-02T04:39:10;7.78;;;4.68;;
27428;SDS011;14881;48.092;11.574;2022-11-02T04:41:37;9.52;;;5.03;;
27428;SDS011;14881;48.092;11.574;2022-11-02T04:44:08;10.02;;;5.93;;
27428;SDS011;14881;48.092;11.574;2022-11-02T04:46:36;9.38;;;4.68;;
27428;SDS011;14881;48.092;11.574;2022-11-02T04:49:09;7.90;;;4.80;;
27428;SDS011;14881;48.092;11.574;2022-11-02T04:51:37;7.68;;;4.28;;
27428;SDS011;14881;48.092;11.574;2022-11-02T04:54:14;7.53;;;4.63;;
27428;SDS011;14881;48.092;11.574;2022-11-02T04:56:42;7.70;;;4.60;;
27428;SDS011;14881;48.092;11.574;2022-11-02T04:59:10;8.75;;;5.00;;
27428;SDS011;14881;48.092;11.574;2022-11-02T05:01:38;9.27;;;4.75;;
27428;SDS011;14881;48.092;11.574;2022-11-02T05:04:05;9.48;;;4.45;;
27428;SDS011;14881;48.092;11.574;2022-11-02T05:06:35;8.52;;;4.93;;
27428;SDS011;14881;48.092;11.574;2022-11-02T05:09:05;5.97;;;4.20;;
27428;SDS011;14881;48.092;11.574;2022-11-02T05:11:33;7.70;;;4.18;;
27428;SDS011;14881;48.092;11.574;2022-11-02T05:14:00;7.85;;;4.57;;
27428;SDS011;14881;48.092;11.574;2022-11-02T05:16:28;9.88;;;4.60;;
27428;SDS011;14881;48.092;11.574;2022-11-02T05:18:56;8.55;;;4.82;;
27428;SDS011;14881;48.092;11.574;2022-11-02T05:21:23;7.03;;;4.43;;
27428;SDS011;14881;48.092;11.574;2022-11-02T05:23:53;8.93;;;4.05;;
27428;SDS011;14881;48.092;11.574;2022-11-02T05:26:20;11.13;;;4.57;;
27428;SDS011;14881;48.092;11.574;2022-11-02T05:28:48;6.55;;;4.78;;
27428;SDS011;14881;48.092;11.574;2022-11-02T05:31:17;11.77;;;5.18;;
27428;SDS011;14881;48.092;11.574;2022-11-02T05:33:45;10.25;;;4.80;;
27428;SDS011;14881;48.092;11.574;2022-11-02T05:36:13;8.35;;;4.57;;
27428;SDS011;14881;48.092;11.574;2022-11-02T05:38:41;9.73;;;4.18;;
27428;SDS011;14881;48.092;11.574;2022-11-02T05:41:10;8.40;;;4.45;;
27428;SDS011;14881;48.092;11.574;2022-11-02T05:43:38;12.23;;;4.95;;
27428;SDS011;14881;48.092;11.574;2022-11-02T05:46:09;6.75;;;4.72;;
27428;SDS011;14881;48.092;11.574;2022-11-02T05:48:36;13.40;;;4.05;;
27428;SDS011;14881;48.092;11.574;2022-11-02T05:51:04;11.65;;;4.30;;
27428;SDS011;14881;48.092;11.574;2022-11-02T05:53:32;6.93;;;3.80;;
27428;SDS011;14881;48.092;11.574;2022-11-02T05:56:04;7.68;;;4.47;;
27428;SDS011;14881;48.092;11.574;2022-11-02T05:58:34;7.03;;;4.40;;
27428;SDS011;14881;48.092;11.574;2022-11-02T06:01:03;5.85;;;3.85;;
27428;SDS011;14881;48.092;11.574;2022-11-02T06:03:33;10.18;;;4.57;;
27428;SDS011;14881;48.092;11.574;2022-11-02T06:06:04;9.55;;;4.20;;
27428;SDS011;14881;48.092;11.574;2022-11-02T06:08:34;8.02;;;4.90;;
27428;SDS011;14881;48.092;11.574;2022-11-02T06:11:03;6.05;;;4.18;;
27428;SDS011;14881;48.092;11.574;2022-11-02T06:13:32;7.90;;;5.15;;
27428;SDS011;14881;48.092;11.574;2022-11-02T06:16:05;8.30;;;5.00;;
27428;SDS011;14881;48.092;11.574;2022-11-02T06:18:34;9.15;;;4.97;;
27428;SDS011;14881;48.092;11.574;2022-11-02T06:21:03;8.85;;;4.93;;
27428;SDS011;14881;48.092;11.574;2022-11-02T06:23:31;10.02;;;4.63;;
27428;SDS011;14881;48.092;11.574;2022-11-02T06:25:59;8.52;;;5.28;;
27428;SDS011;14881;48.092;11.574;2022-11-02T06:28:29;10.02;;;5.55;;
27428;SDS011;14881;48.092;11.574;2022-11-02T06:30:58;7.63;;;4.63;;
27428;SDS011;14881;48.092;11.574;2022-11-02T06:33:26;5.93;;;4.72;;
27428;SDS011;14881;48.092;11.574;2022-11-02T06:35:55;9.35;;;5.18;;
27428;SDS011;14881;48.092;11.574;2022-11-02T06:38:22;11.32;;;5.13;;
27428;SDS011;14881;48.092;11.574;2022-11-02T06:40:53;14.02;;;7.05;;
27428;SDS011;14881;48.092;11.574;2022-11-02T06:43:22;11.43;;;7.35;;
27428;SDS011;14881;48.092;11.574;2022-11-02T06:45:52;12.15;;;7.63;;
27428;SDS011;14881;48.092;11.574;2022-11-02T06:48:22;9.25;;;6.75;;
27428;SDS011;14881;48.092;11.574;2022-11-02T06:50:55;7.60;;;6.13;;
27428;SDS011;14881;48.092;11.574;2022-11-02T06:53:23;8.45;;;6.30;;
27428;SDS011;14881;48.092;11.574;2022-11-02T06:55:51;7.68;;;5.40;;
27428;SDS011;14881;48.092;11.574;2022-11-02T06:58:19;8.15;;;5.93;;
27428;SDS011;14881;48.092;11.574;2022-11-02T07:00:48;14.02;;;5.90;;
27428;SDS011;14881;48.092;11.574;2022-11-02T07:03:16;11.73;;;6.18;;
27428;SDS011;14881;48.092;11.574;2022-11-02T07:05:49;9.90;;;5.88;;
27428;SDS011;14881;48.092;11.574;2022-11-02T07:08:18;12.73;;;5.38;;
27428;SDS011;14881;48.092;11.574;2022-11-02T07:10:46;7.63;;;5.13;;
27428;SDS011;14881;48.092;11.574;2022-11-02T07:13:17;6.47;;;4.85;;
27428;SDS011;14881;48.092;11.574;2022-11-02T07:15:45;9.13;;;5.28;;
27428;SDS011;14881;48.092;11.574;2022-11-02T07:18:13;8.10;;;4.57;;
27428;SDS011;14881;48.092;11.574;2022-11-02T07:20:40;8.43;;;4.60;;
27428;SDS011;14881;48.092;11.574;2022-11-02T07:23:09;8.32;;;4.20;;
27428;SDS011;14881;48.092;11.574;2022-11-02T07:25:37;8.70;;;4.43;;
27428;SDS011;14881;48.092;11.574;2022-11-02T07:28:05;7.60;;;5.72;;
27428;SDS011;14881;48.092;11.574;2022-11-02T07:30:33;12.57;;;5.80;;
27428;SDS011;14881;48.092;11.574;2022-11-02T07:33:01;8.65;;;5.32;;
27428;SDS011;14881;48.092;11.574;2022-11-02T07:35:29;7.38;;;5.68;;
27428;SDS011;14881;48.092;11.574;2022-11-02T07:37:59;12.30;;;5.72;;
27428;SDS011;14881;48.092;11.574;2022-11-02T07:40:30;10.00;;;5.43;;
27428;SDS011;14881;48.092;11.574;2022-11-02T07:42:59;10.05;;;5.32;;
27428;SDS011;14881;48.092;11.574;2022-11-02T07:45:28;9.73;;;4.78;;
27428;SDS011;14881;48.092;11.574;2022-11-02T07:47:55;7.72;;;4.63;;
27428;SDS011;14881;48.092;11.574;2022-11-02T07:50:23;7.28;;;4.68;;
27428;SDS011;14881;48.092;11.574;2022-11-02T07:52:53;7.15;;;4.57;;
27428;SDS011;14881;48.092;11.574;2022-11-02T07:55:23;7.75;;;4.40;;
27428;SDS011;14881;48.092;11.574;2022-11-02T07:57:53;7.47;;;4.32;;
27428;SDS011;14881;48.092;11.574;2022-11-02T08:00:21;7.35;;;3.70;;
27428;SDS011;14881;48.092;11.574;2022-11-02T08:02:52;10.25;;;3.97;;
27428;SDS011;14881;48.092;11.574;2022-11-02T08:05:26;9.80;;;3.85;;
27428;SDS011;14881;48.092;11.574;2022-11-02T08:07:56;8.20;;;3.45;;
27428;SDS011;14881;48.092;11.574;2022-11-02T08:10:24;7.70;;;3.33;;
27428;SDS011;14881;48.092;11.574;2022-11-02T08:12:54;6.70;;;3.55;;
27428;SDS011;14881;48.092;11.574;2022-11-02T08:15:23;6.13;;;3.65;;
27428;SDS011;14881;48.092;11.574;2022-11-02T08:18:00;8.25;;;3.67;;
27428;SDS011;14881;48.092;11.574;2022-11-02T08:20:30;4.57;;;3.35;;
27428;SDS011;14881;48.092;11.574;2022-11-02T08:22:58;6.22;;;3.83;;
27428;SDS011;14881;48.092;11.574;2022-11-02T08:25:26;6.95;;;3.50;;
27428;SDS011;14881;48.092;11.574;2022-11-02T08:27:56;6.47;;;3.25;;
27428;SDS011;14881;48.092;11.574;2022-11-02T08:30:24;6.75;;;3.72;;
27428;SDS011;14881;48.092;11.574;2022-11-02T08:32:53;9.32;;;3.65;;
27428;SDS011;14881;48.092;11.574;2022-11-02T08:35:31;6.13;;;3.42;;
27428;SDS011;14881;48.092;11.574;2022-11-02T08:38:00;8.93;;;3.15;;
27428;SDS011;14881;48.092;11.574;2022-11-02T08:40:28;9.50;;;3.53;;
27428;SDS011;14881;48.092;11.574;2022-11-02T08:43:00;8.13;;;3.20;;
27428;SDS011;14881;48.092;11.574;2022-11-02T08:45:30;8.95;;;3.70;;
27428;SDS011;14881;48.092;11.574;2022-11-02T08:48:18;10.23;;;3.10;;
27428;SDS011;14881;48.092;11.574;2022-11-02T08:50:47;8.13;;;2.88;;
27428;SDS011;14881;48.092;11.574;2022-11-02T08:53:15;5.07;;;2.20;;
27428;SDS011;14881;48.092;11.574;2022-11-02T08:55:43;7.35;;;2.30;;
27428;SDS011;14881;48.092;11.574;2022-11-02T08:58:12;7.38;;;2.63;;
27428;SDS011;14881;48.092;11.574;2022-11-02T09:00:39;7.38;;;2.25;;
27428;SDS011;14881;48.092;11.574;2022-11-02T09:03:08;4.40;;;2.25;;
27428;SDS011;14881;48.092;11.574;2022-11-02T09:05:38;6.45;;;2.55;;
27428;SDS011;14881;48.092;11.574;2022-11-02T09:08:08;8.95;;;2.42;;
27428;SDS011;14881;48.092;11.574;2022-11-02T09:10:42;5.05;;;2.13;;
27428;SDS011;14881;48.092;11.574;2022-11-02T09:13:12;5.78;;;2.30;;
27428;SDS011;14881;48.092;11.574;2022-11-02T09:15:43;4.75;;;2.40;;
27428;SDS011;14881;48.092;11.574;2022-11-02T09:18:11;7.00;;;2.13;;
27428;SDS011;14881;48.092;11.574;2022-11-02T09:20:38;7.75;;;2.50;;
27428;SDS011;14881;48.092;11.574;2022-11-02T09:23:06;7.32;;;2.17;;
27428;SDS011;14881;48.092;11.574;2022-11-02T09:25:34;8.32;;;2.42;;
27428;SDS011;14881;48.092;11.574;2022-11-02T09:28:01;6.43;;;2.40;;
27428;SDS011;14881;48.092;11.574;2022-11-02T09:30:31;5.28;;;1.90;;
27428;SDS011;14881;48.092;11.574;2022-11-02T09:33:00;4.72;;;1.92;;
27428;SDS011;14881;48.092;11.574;2022-11-02T09:35:30;5.50;;;1.80;;
27428;SDS011;14881;48.092;11.574;2022-11-02T09:37:59;7.68;;;2.50;;
27428;SDS011;14881;48.092;11.574;2022-11-02T09:40:27;6.63;;;1.70;;
27428;SDS011;14881;48.092;11.574;2022-11-02T09:43:02;9.13;;;2.17;;
27428;SDS011;14881;48.092;11.574;2022-11-02T09:45:40;6.13;;;1.90;;
27428;SDS011;14881;48.092;11.574;2022-11-02T09:48:21;7.45;;;2.17;;
27428;SDS011;14881;48.092;11.574;2022-11-02T09:50:55;7.45;;;2.00;;
27428;SDS011;14881;48.092;11.574;2022-11-02T09:53:31;4.53;;;2.10;;
27428;SDS011;14881;48.092;11.574;2022-11-02T09:56:05;6.47;;;2.13;;
27428;SDS011;14881;48.092;11.574;2022-11-02T09:58:35;5.80;;;1.90;;
27428;SDS011;14881;48.092;11.574;2022-11-02T10:01:09;6.60;;;2.08;;
27428;SDS011;14881;48.092;11.574;2022-11-02T10:03:50;4.97;;;2.05;;
27428;SDS011;14881;48.092;11.574;2022-11-02T10:06:29;5.65;;;1.88;;
27428;SDS011;14881;48.092;11.574;2022-11-02T10:09:02;7.85;;;2.17;;
27428;SDS011;14881;48.092;11.574;2022-11-02T10:11:38;6.45;;;2.00;;
27428;SDS011;14881;48.092;11.574;2022-11-02T10:14:17;9.32;;;1.85;;
27428;SDS011;14881;48.092;11.574;2022-11-02T10:16:52;7.95;;;2.03;;
27428;SDS011;14881;48.092;11.574;2022-11-02T10:19:30;8.18;;;2.05;;
27428;SDS011;14881;48.092;11.574;2022-11-02T10:22:01;6.45;;;2.00;;
27428;SDS011;14881;48.092;11.574;2022-11-02T10:24:30;9.27;;;1.67;;
27428;SDS011;14881;48.092;11.574;2022-11-02T10:27:03;9.02;;;2.33;;
27428;SDS011;14881;48.092;11.574;2022-11-02T10:29:41;6.90;;;2.05;;
27428;SDS011;14881;48.092;11.574;2022-11-02T10:32:17;6.32;;;1.92;;
27428;SDS011;14881;48.092;11.574;2022-11-02T10:34:45;12.80;;;2.00;;
27428;SDS011;14881;48.092;11.574;2022-11-02T10:37:33;2.92;;;1.77;;
27428;SDS011;14881;48.092;11.574;2022-11-02T10:40:15;5.47;;;2.22;;
27428;SDS011;14881;48.092;11.574;2022-11-02T10:42:56;4.07;;;1.73;;
27428;SDS011;14881;48.092;11.574;2022-11-02T10:45:50;5.72;;;2.20;;
27428;SDS011;14881;48.092;11.574;2022-11-02T10:48:36;7.57;;;2.30;;
27428;SDS011;14881;48.092;11.574;2022-11-02T10:51:12;6.95;;;1.98;;
27428;SDS011;14881;48.092;11.574;2022-11-02T10:53:43;7.78;;;2.30;;
27428;SDS011;14881;48.092;11.574;2022-11-02T10:56:15;10.55;;;2.00;;
27428;SDS011;14881;48.092;11.574;2022-11-02T10:58:47;6.68;;;1.95;;
27428;SDS011;14881;48.092;11.574;2022-11-02T11:01:18;5.00;;;1.80;;
27428;SDS011;14881;48.092;11.574;2022-11-02T11:03:57;9.05;;;1.80;;
27428;SDS011;14881;48.092;11.574;2022-11-02T11:06:27;5.93;;;1.70;;
27428;SDS011;14881;48.092;11.574;2022-11-02T11:08:58;5.65;;;1.60;;
27428;SDS011;14881;48.092;11.574;2022-11-02T11:11:29;5.28;;;2.13;;
27428;SDS011;14881;48.092;11.574;2022-11-02T11:14:00;6.22;;;1.80;;
27428;SDS011;14881;48.092;11.574;2022-11-02T11:16:51;10.95;;;1.92;;
27428;SDS011;14881;48.092;11.574;2022-11-02T11:19:23;5.10;;;1.67;;
27428;SDS011;14881;48.092;11.574;2022-11-02T11:22:01;6.85;;;2.05;;
27428;SDS011;14881;48.092;11.574;2022-11-02T11:24:29;8.57;;;1.80;;
27428;SDS011;14881;48.092;11.574;2022-11-02T11:27:02;9.30;;;2.20;;
27428;SDS011;14881;48.092;11.574;2022-11-02T11:29:45;5.35;;;1.65;;
27428;SDS011;14881;48.092;11.574;2022-11-02T11:32:15;4.90;;;1.77;;
27428;SDS011;14881;48.092;11.574;2022-11-02T11:34:49;4.78;;;1.75;;
27428;SDS011;14881;48.092;11.574;2022-11-02T11:37:22;5.88;;;2.20;;
27428;SDS011;14881;48.092;11.574;2022-11-02T11:39:53;6.18;;;1.52;;
27428;SDS011;14881;48.092;11.574;2022-11-02T11:42:25;8.43;;;1.67;;
27428;SDS011;14881;48.092;11.574;2022-11-02T11:44:59;6.75;;;2.10;;
27428;SDS011;14881;48.092;11.574;2022-11-02T11:50:02;4.85;;;1.42;;
27428;SDS011;14881;48.092;11.574;2022-11-02T11:52:44;9.70;;;1.95;;
27428;SDS011;14881;48.092;11.574;2022-11-02T11:55:19;7.43;;;1.65;;
27428;SDS011;14881;48.092;11.574;2022-11-02T11:58:04;6.32;;;1.80;;
27428;SDS011;14881;48.092;11.574;2022-11-02T12:00:33;5.97;;;1.73;;
27428;SDS011;14881;48.092;11.574;2022-11-02T12:03:01;5.28;;;1.60;;
27428;SDS011;14881;48.092;11.574;2022-11-02T12:05:37;3.72;;;1.27;;
27428;SDS011;14881;48.092;11.574;2022-11-02T12:08:28;5.30;;;1.60;;
27428;SDS011;14881;48.092;11.574;2022-11-02T12:11:20;4.10;;;1.70;;
27428;SDS011;14881;48.092;11.574;2022-11-02T12:14:03;4.80;;;1.60;;
27428;SDS011;14881;48.092;11.574;2022-11-02T12:19:38;5.47;;;1.77;;
27428;SDS011;14881;48.092;11.574;2022-11-02T12:22:22;7.55;;;1.85;;
27428;SDS011;14881;48.092;11.574;2022-11-02T12:25:04;3.65;;;1.63;;
27428;SDS011;14881;48.092;11.574;2022-11-02T12:27:44;7.28;;;1.98;;
27428;SDS011;14881;48.092;11.574;2022-11-02T12:30:19;6.20;;;1.40;;
27428;SDS011;14881;48.092;11.574;2022-11-02T12:35:48;4.80;;;1.23;;
27428;SDS011;14881;48.092;11.574;2022-11-02T12:38:36;7.32;;;1.48;;
27428;SDS011;14881;48.092;11.574;2022-11-02T12:41:11;6.15;;;1.52;;
27428;SDS011;14881;48.092;11.574;2022-11-02T12:43:44;5.88;;;1.98;;
27428;SDS011;14881;48.092;11.574;2022-11-02T12:46:20;7.95;;;1.95;;
27428;SDS011;14881;48.092;11.574;2022-11-02T12:49:07;6.68;;;1.58;;
27428;SDS011;14881;48.092;11.574;2022-11-02T12:51:46;4.75;;;1.23;;
27428;SDS011;14881;48.092;11.574;2022-11-02T12:54:24;4.45;;;1.67;;
27428;SDS011;14881;48.092;11.574;2022-11-02T12:57:00;4.47;;;2.03;;
27428;SDS011;14881;48.092;11.574;2022-11-02T12:59:30;4.80;;;1.73;;
27428;SDS011;14881;48.092;11.574;2022-11-02T13:02:02;3.35;;;1.52;;
27428;SDS011;14881;48.092;11.574;2022-11-02T13:04:35;6.38;;;1.83;;
27428;SDS011;14881;48.092;11.574;2022-11-02T13:07:09;3.58;;;1.40;;
27428;SDS011;14881;48.092;11.574;2022-11-02T13:09:40;7.65;;;1.90;;
27428;SDS011;14881;48.092;11.574;2022-11-02T13:12:17;5.70;;;2.20;;
27428;SDS011;14881;48.092;11.574;2022-11-02T13:14:47;5.78;;;1.48;;
27428;SDS011;14881;48.092;11.574;2022-11-02T13:17:18;8.18;;;1.92;;
27428;SDS011;14881;48.092;11.574;2022-11-02T13:19:49;7.93;;;2.42;;
27428;SDS011;14881;48.092;11.574;2022-11-02T13:22:22;4.85;;;1.40;;
27428;SDS011;14881;48.092;11.574;2022-11-02T13:24:56;6.32;;;1.70;;
27428;SDS011;14881;48.092;11.574;2022-11-02T13:27:32;4.55;;;2.05;;
27428;SDS011;14881;48.092;11.574;2022-11-02T13:30:12;7.28;;;2.13;;
27428;SDS011;14881;48.092;11.574;2022-11-02T13:32:42;6.22;;;2.28;;
27428;SDS011;14881;48.092;11.574;2022-11-02T13:35:15;7.15;;;1.98;;
27428;SDS011;14881;48.092;11.574;2022-11-02T13:37:47;6.55;;;2.10;;
27428;SDS011;14881;48.092;11.574;2022-11-02T13:40:20;7.10;;;1.83;;
27428;SDS011;14881;48.092;11.574;2022-11-02T13:43:03;5.97;;;1.98;;
27428;SDS011;14881;48.092;11.574;2022-11-02T13:48:53;4.65;;;1.52;;
27428;SDS011;14881;48.092;11.574;2022-11-02T13:51:27;6.97;;;1.63;;
27428;SDS011;14881;48.092;11.574;2022-11-02T13:54:04;6.65;;;2.10;;
27428;SDS011;14881;48.092;11.574;2022-11-02T13:56:39;5.07;;;1.92;;
27428;SDS011;14881;48.092;11.574;2022-11-02T13:59:09;5.78;;;1.38;;
27428;SDS011;14881;48.092;11.574;2022-11-02T14:01:46;3.80;;;1.40;;
27428;SDS011;14881;48.092;11.574;2022-11-02T14:04:18;5.50;;;1.50;;
27428;SDS011;14881;48.092;11.574;2022-11-02T14:06:48;5.13;;;1.63;;
27428;SDS011;14881;48.092;11.574;2022-11-02T14:09:29;5.10;;;1.70;;
27428;SDS011;14881;48.092;11.574;2022-11-02T14:18:11;6.30;;;1.73;;
27428;SDS011;14881;48.092;11.574;2022-11-02T14:20:41;5.60;;;1.58;;
27428;SDS011;14881;48.092;11.574;2022-11-02T14:29:02;5.72;;;1.42;;
27428;SDS011;14881;48.092;11.574;2022-11-02T14:31:54;6.65;;;1.77;;
27428;SDS011;14881;48.092;11.574;2022-11-02T14:34:35;3.53;;;1.40;;
27428;SDS011;14881;48.092;11.574;2022-11-02T14:37:23;4.80;;;1.65;;
27428;SDS011;14881;48.092;11.574;2022-11-02T14:40:06;5.55;;;1.45;;
27428;SDS011;14881;48.092;11.574;2022-11-02T14:42:48;5.65;;;1.58;;
27428;SDS011;14881;48.092;11.574;2022-11-02T14:45:34;3.33;;;1.55;;
27428;SDS011;14881;48.092;11.574;2022-11-02T14:48:13;6.38;;;1.70;;
27428;SDS011;14881;48.092;11.574;2022-11-02T14:50:42;6.70;;;2.03;;
27428;SDS011;14881;48.092;11.574;2022-11-02T14:53:24;5.10;;;1.60;;
27428;SDS011;14881;48.092;11.574;2022-11-02T14:55:55;3.60;;;1.38;;
27428;SDS011;14881;48.092;11.574;2022-11-02T14:58:23;4.53;;;1.60;;
27428;SDS011;14881;48.092;11.574;2022-11-02T15:01:00;5.32;;;1.50;;
27428;SDS011;14881;48.092;11.574;2022-11-02T15:03:31;7.10;;;1.58;;
27428;SDS011;14881;48.092;11.574;2022-11-02T15:06:02;3.97;;;1.58;;
27428;SDS011;14881;48.092;11.574;2022-11-02T15:08:34;3.00;;;1.33;;
27428;SDS011;14881;48.092;11.574;2022-11-02T15:20:19;6.38;;;1.65;;
27428;SDS011;14881;48.092;11.574;2022-11-02T15:22:53;4.80;;;1.83;;
27428;SDS011;14881;48.092;11.574;2022-11-02T15:25:25;4.45;;;1.70;;
27428;SDS011;14881;48.092;11.574;2022-11-02T15:27:56;9.18;;;1.88;;
27428;SDS011;14881;48.092;11.574;2022-11-02T15:30:32;6.45;;;1.58;;
27428;SDS011;14881;48.092;11.574;2022-11-02T15:33:15;5.35;;;1.67;;
27428;SDS011;14881;48.092;11.574;2022-11-02T15:35:46;9.77;;;1.98;;
27428;SDS011;14881;48.092;11.574;2022-11-02T15:38:20;5.93;;;1.58;;